Archival Weather

Snohomish County (Paine Fld)

Everett, Washington (KPAE)

Report from: Monday, October 23, 2023 9:53 PM PDT
Current time: Monday, June 17, 2024 12:08 AM PDT

Current weather – Weather history – Daily summaries
Weather forecast

Temperature10.0°C (50.0°F)
Wind chill8.8°C (47.8°F)
Dew point2.8°C (37.0°F)
Winds 5 kts (2.6 m/s, 5.8 mph) North-Northeast (20°)
Visibility10 mi. (16.1 km)
Clouds Ceiling: Overcast 4,200 ft. (1,280 m)
Altimeter30.04 in.Hg (1017 mB)
Relative humidity61 %
Density altitude-623 ft. (-190 m)
Sea-level pressure101.7 kPa (1017 mB, 30.04 in.Hg)
Remarks Fully automated report
Automated weather observing station with precipitation discriminator
Flight conditions Visual Meteorological Conditions
Raw dataKPAE 240453Z AUTO 02005KT 10SM OVC042 10/03 A3004 RMK AO2 SLP173 T01000028
An error has occurred. This application may no longer respond until reloaded. Reload 🗙